createdAt,value
2018-09-06T00:00:03.358Z,16.13
2018-09-06T00:02:32.977Z,16.43
2018-09-06T00:05:02.656Z,17.43
2018-09-06T00:07:32.410Z,16.83
2018-09-06T00:10:02.017Z,17.23
2018-09-06T00:12:31.642Z,17.40
2018-09-06T00:15:01.258Z,17.90
2018-09-06T00:17:30.855Z,17.43
2018-09-06T00:20:00.508Z,18.50
2018-09-06T00:22:30.129Z,17.53
2018-09-06T00:24:59.724Z,17.13
2018-09-06T00:27:29.354Z,17.73
2018-09-06T00:29:58.951Z,16.23
2018-09-06T00:32:28.594Z,16.17
2018-09-06T00:34:58.332Z,15.27
2018-09-06T00:37:27.976Z,13.83
2018-09-06T00:39:57.695Z,14.43
2018-09-06T00:42:27.334Z,12.80
2018-09-06T00:44:57.100Z,13.20
2018-09-06T00:47:27.012Z,13.40
2018-09-06T00:49:56.677Z,12.47
2018-09-06T00:52:26.334Z,13.00
2018-09-06T00:54:56.117Z,11.80
2018-09-06T00:57:25.666Z,11.87
2018-09-06T00:59:55.376Z,10.60
2018-09-06T01:02:25.019Z,10.80
2018-09-06T01:04:54.601Z,10.30
2018-09-06T01:07:24.330Z,9.70
2018-09-06T01:09:53.949Z,9.10
2018-09-06T01:12:23.591Z,9.13
2018-09-06T01:14:53.267Z,9.50
2018-09-06T01:17:22.848Z,9.00
2018-09-06T01:19:52.556Z,8.83
2018-09-06T01:22:22.372Z,9.70
2018-09-06T01:24:52.007Z,10.13
2018-09-06T01:27:21.638Z,10.17
2018-09-06T01:29:51.374Z,10.63
2018-09-06T01:32:21.028Z,10.97
2018-09-06T01:34:50.635Z,13.17
2018-09-06T01:37:20.320Z,14.60
2018-09-06T01:39:49.856Z,14.43
2018-09-06T01:42:19.447Z,14.73
2018-09-06T01:44:49.091Z,14.47
2018-09-06T01:47:18.797Z,15.17
2018-09-06T01:49:48.452Z,15.53
2018-09-06T01:52:18.036Z,14.33
2018-09-06T01:54:47.687Z,15.93
2018-09-06T01:57:17.318Z,14.10
2018-09-06T01:59:46.916Z,13.87
2018-09-06T02:02:17.238Z,14.07
2018-09-06T02:04:46.871Z,14.43
2018-09-06T02:07:16.465Z,14.17
2018-09-06T02:09:46.129Z,15.47
2018-09-06T02:12:15.681Z,15.53
2018-09-06T02:14:45.354Z,16.10
2018-09-06T02:17:15.127Z,16.60
2018-09-06T02:19:44.707Z,17.33
2018-09-06T02:22:14.430Z,16.93
2018-09-06T02:24:44.048Z,17.30
2018-09-06T02:27:13.638Z,16.90
2018-09-06T02:29:43.323Z,17.80
2018-09-06T02:32:13.022Z,17.47
2018-09-06T02:34:42.664Z,17.97
2018-09-06T02:37:12.349Z,17.47
2018-09-06T02:39:42.014Z,17.50
2018-09-06T02:42:11.616Z,18.10
2018-09-06T02:44:41.265Z,19.17
2018-09-06T02:47:10.817Z,18.80
2018-09-06T02:49:45.487Z,17.90
2018-09-06T02:52:15.145Z,17.27
2018-09-06T02:54:44.720Z,17.17
2018-09-06T02:57:14.446Z,18.30
2018-09-06T02:59:46.687Z,17.40
2018-09-06T03:02:16.313Z,17.03
2018-09-06T03:04:46.083Z,19.07
2018-09-06T03:07:15.725Z,18.07
2018-09-06T03:09:45.426Z,19.63
2018-09-06T03:12:16.166Z,20.27
2018-09-06T03:14:47.335Z,18.67
2018-09-06T03:17:16.944Z,20.27
2018-09-06T03:19:46.597Z,21.37
2018-09-06T03:22:16.236Z,20.70
2018-09-06T03:24:46.328Z,21.23
2018-09-06T03:27:15.905Z,21.43
2018-09-06T03:29:45.577Z,19.77
2018-09-06T03:32:15.296Z,20.40
2018-09-06T03:34:50.500Z,20.73
2018-09-06T03:37:20.252Z,20.27
2018-09-06T03:39:49.845Z,20.03
2018-09-06T03:42:19.494Z,20.77
2018-09-06T03:44:49.155Z,19.40
2018-09-06T03:47:18.732Z,20.30
2018-09-06T03:49:48.514Z,19.43
2018-09-06T03:52:18.069Z,19.90
2018-09-06T03:54:47.720Z,19.57
2018-09-06T03:57:17.348Z,18.27
2018-09-06T03:59:47.587Z,18.63
2018-09-06T04:02:17.292Z,17.97
2018-09-06T04:04:46.889Z,18.33
2018-09-06T04:07:16.493Z,19.20
2018-09-06T04:09:46.161Z,17.77
2018-09-06T04:12:15.768Z,17.50
2018-09-06T04:14:45.389Z,16.77
2018-09-06T04:17:15.042Z,16.77
2018-09-06T04:19:44.702Z,17.40
2018-09-06T04:22:14.401Z,16.03
2018-09-06T04:24:44.043Z,16.20
2018-09-06T04:27:13.652Z,16.33
2018-09-06T04:29:43.329Z,15.40
2018-09-06T04:32:12.884Z,14.00
2018-09-06T04:34:42.486Z,15.00
2018-09-06T04:37:12.107Z,14.73
2018-09-06T04:39:42.072Z,14.57
2018-09-06T04:42:11.679Z,13.43
2018-09-06T04:44:41.344Z,14.23
2018-09-06T04:47:10.969Z,14.33
2018-09-06T04:49:40.727Z,14.90
2018-09-06T04:52:10.390Z,14.77
2018-09-06T04:54:39.953Z,14.57
2018-09-06T04:57:09.579Z,14.53
2018-09-06T04:59:39.231Z,14.57
2018-09-06T05:02:08.788Z,14.43
2018-09-06T05:04:38.395Z,14.97
2018-09-06T05:07:08.136Z,15.67
2018-09-06T05:09:37.791Z,14.43
2018-09-06T05:12:07.586Z,16.03
2018-09-06T05:14:37.216Z,15.27
2018-09-06T05:17:07.056Z,14.87
2018-09-06T05:19:36.687Z,14.63
2018-09-06T05:22:06.386Z,14.50
2018-09-06T05:24:36.074Z,15.00
2018-09-06T05:27:05.725Z,15.47
2018-09-06T05:29:35.406Z,13.80
2018-09-06T05:32:05.024Z,14.37
2018-09-06T05:34:34.647Z,15.50
2018-09-06T05:37:04.297Z,15.17
2018-09-06T05:39:33.889Z,14.37
2018-09-06T05:42:03.454Z,15.43
2018-09-06T05:44:33.027Z,15.10
2018-09-06T05:47:02.973Z,14.27
2018-09-06T05:49:32.625Z,15.10
2018-09-06T05:52:02.584Z,15.33
2018-09-06T05:54:32.183Z,14.43
2018-09-06T05:57:01.827Z,15.03
2018-09-06T05:59:31.457Z,14.60
2018-09-06T06:02:01.101Z,15.17
2018-09-06T06:04:30.632Z,17.27
2018-09-06T06:07:00.332Z,18.67
2018-09-06T06:09:30.041Z,20.63
2018-09-06T06:11:59.732Z,21.23
2018-09-06T06:14:29.309Z,23.73
2018-09-06T06:16:58.959Z,25.30
2018-09-06T06:19:28.559Z,21.47
2018-09-06T06:21:58.220Z,20.17
2018-09-06T06:24:27.812Z,21.15
2018-09-06T06:26:57.458Z,17.90
2018-09-06T06:29:27.108Z,17.53
2018-09-06T06:31:56.733Z,16.90
2018-09-06T06:34:26.399Z,17.47
2018-09-06T06:36:56.063Z,16.87
2018-09-06T06:39:25.736Z,16.87
2018-09-06T06:41:55.368Z,18.00
2018-09-06T06:44:25.129Z,18.55
2018-09-06T06:46:54.746Z,16.63
2018-09-06T06:49:24.511Z,16.13
2018-09-06T06:51:54.111Z,15.77
2018-09-06T06:54:23.826Z,15.93
2018-09-06T06:56:53.484Z,15.10
2018-09-06T06:59:23.045Z,16.40
2018-09-06T07:01:52.699Z,16.97
2018-09-06T07:04:22.424Z,15.73
2018-09-06T07:06:52.074Z,15.53
2018-09-06T07:09:21.728Z,16.30
2018-09-06T07:11:51.374Z,14.87
2018-09-06T07:14:21.043Z,14.63
2018-09-06T07:16:50.677Z,14.37
2018-09-06T07:19:20.332Z,12.80
2018-09-06T07:21:49.948Z,14.00
2018-09-06T07:24:19.604Z,17.73
2018-09-06T07:26:49.317Z,13.73
2018-09-06T07:29:18.918Z,14.00
2018-09-06T07:31:48.504Z,12.23
2018-09-06T07:34:18.153Z,13.33
2018-09-06T07:36:47.910Z,12.17
2018-09-06T07:39:17.522Z,12.50
2018-09-06T07:41:47.158Z,13.60
2018-09-06T07:44:16.802Z,12.27
2018-09-06T07:46:46.448Z,12.53
2018-09-06T07:49:16.082Z,13.40
2018-09-06T07:51:45.719Z,12.03
2018-09-06T07:54:15.418Z,11.77
2018-09-06T07:56:45.083Z,11.80
2018-09-06T07:59:14.620Z,11.77
2018-09-06T08:01:44.289Z,10.90
2018-09-06T08:04:13.949Z,10.20
2018-09-06T08:06:43.636Z,10.60
2018-09-06T08:09:13.755Z,11.37
2018-09-06T08:11:43.466Z,10.80
2018-09-06T08:14:13.127Z,10.23
2018-09-06T08:16:42.887Z,10.40
2018-09-06T08:19:12.665Z,10.53
2018-09-06T08:21:42.305Z,11.03
2018-09-06T08:24:11.894Z,10.53
2018-09-06T08:26:41.562Z,12.73
2018-09-06T08:29:11.249Z,10.67
2018-09-06T08:31:41.019Z,20.40
2018-09-06T08:34:13.056Z,11.60
2018-09-06T08:36:43.762Z,12.23
2018-09-06T08:39:13.660Z,15.57
2018-09-06T08:41:43.457Z,16.77
2018-09-06T08:44:13.164Z,14.07
2018-09-06T08:46:42.735Z,10.70
2018-09-06T08:49:12.347Z,11.30
2018-09-06T08:51:43.234Z,11.37
2018-09-06T08:54:12.827Z,12.03
2018-09-06T08:56:42.476Z,11.63
2018-09-06T08:59:12.170Z,10.87
2018-09-06T09:01:43.101Z,12.00
2018-09-06T09:04:12.828Z,11.50
2018-09-06T09:06:42.440Z,11.93
2018-09-06T09:09:14.166Z,11.67
2018-09-06T09:11:43.839Z,10.95
2018-09-06T09:14:13.470Z,10.80
2018-09-06T09:16:43.195Z,10.70
2018-09-06T09:19:12.887Z,10.50
2018-09-06T09:21:42.603Z,12.87
2018-09-06T09:24:12.239Z,11.13
2018-09-06T09:26:41.793Z,12.78
2018-09-06T09:29:11.419Z,13.83
2018-09-06T09:31:41.083Z,13.45
2018-09-06T09:34:10.782Z,12.37
2018-09-06T09:36:40.422Z,11.77
2018-09-06T09:39:10.803Z,11.73
2018-09-06T09:41:40.426Z,13.55
2018-09-06T09:44:10.188Z,15.08
2018-09-06T09:49:08.436Z,13.70
2018-09-06T09:51:38.011Z,14.53
2018-09-06T09:54:07.751Z,15.43
2018-09-06T09:56:37.404Z,13.97
2018-09-06T09:59:07.117Z,16.40
2018-09-06T10:01:44.173Z,14.37
2018-09-06T10:04:18.891Z,17.60
2018-09-06T10:06:53.863Z,15.63
2018-09-06T10:09:25.352Z,15.13
2018-09-06T10:11:55.051Z,14.03
2018-09-06T10:14:24.695Z,13.47
2018-09-06T10:16:54.486Z,16.40
2018-09-06T10:19:25.151Z,16.50
2018-09-06T10:21:54.848Z,18.60
2018-09-06T10:24:24.458Z,15.95
2018-09-06T10:26:54.332Z,16.70
2018-09-06T10:29:23.968Z,17.10
2018-09-06T10:31:53.586Z,17.03
2018-09-06T10:34:23.319Z,17.40
2018-09-06T10:36:52.908Z,15.20
2018-09-06T10:39:22.600Z,16.42
2018-09-06T10:41:52.302Z,19.87
2018-09-06T10:44:21.872Z,17.57
2018-09-06T10:46:51.590Z,14.70
2018-09-06T10:49:21.243Z,16.75
2018-09-06T10:51:50.878Z,17.52
2018-09-06T10:54:20.615Z,17.32
2018-09-06T10:56:50.351Z,15.20
2018-09-06T10:59:20.079Z,14.95
2018-09-06T11:01:49.714Z,16.27
2018-09-06T11:04:19.473Z,13.18
2018-09-06T11:06:49.718Z,17.50
2018-09-06T11:09:19.431Z,17.07
2018-09-06T11:11:49.040Z,14.25
2018-09-06T11:14:18.698Z,13.88
2018-09-06T11:16:48.329Z,13.88
2018-09-06T11:19:18.066Z,16.10
2018-09-06T11:21:47.789Z,14.33
2018-09-06T11:24:17.399Z,15.72
2018-09-06T11:26:46.958Z,16.15
2018-09-06T11:29:16.598Z,13.40
2018-09-06T11:31:46.261Z,14.47
2018-09-06T11:34:16.029Z,16.10
2018-09-06T11:36:45.680Z,16.53
2018-09-06T11:39:15.702Z,15.25
2018-09-06T11:41:45.462Z,15.45
2018-09-06T11:44:15.117Z,14.20
2018-09-06T11:46:44.887Z,14.70
2018-09-06T11:49:15.710Z,11.93
2018-09-06T11:51:45.465Z,11.18
2018-09-06T11:54:15.284Z,16.57
2018-09-06T11:56:44.859Z,19.02
2018-09-06T11:59:14.586Z,16.57
2018-09-06T12:01:44.512Z,15.53
2018-09-06T12:04:14.393Z,16.57
2018-09-06T12:06:44.130Z,16.32
2018-09-06T12:09:46.507Z,15.18
2018-09-06T12:12:16.291Z,12.58
2018-09-06T12:14:45.904Z,11.35
2018-09-06T12:17:15.572Z,12.30
2018-09-06T12:19:45.727Z,9.48
2018-09-06T12:22:15.404Z,8.60
2018-09-06T12:24:45.213Z,10.18
2018-09-06T12:27:14.974Z,8.88
2018-09-06T12:29:44.766Z,9.38
2018-09-06T12:32:14.643Z,11.48
2018-09-06T12:34:45.632Z,8.33
2018-09-06T12:37:15.962Z,7.47
2018-09-06T12:39:46.779Z,8.58
2018-09-06T12:42:17.780Z,9.08
2018-09-06T12:44:47.549Z,8.18
2018-09-06T12:47:17.200Z,6.78
2018-09-06T12:49:47.957Z,10.82
2018-09-06T12:52:17.646Z,8.20
2018-09-06T12:54:47.478Z,12.73
2018-09-06T12:57:17.592Z,10.90
2018-09-06T12:59:47.474Z,9.63
2018-09-06T13:02:17.189Z,9.58
2018-09-06T13:04:47.940Z,7.83
2018-09-06T13:07:17.682Z,8.50
2018-09-06T13:09:47.319Z,8.85
2018-09-06T13:12:17.039Z,9.83
2018-09-06T13:14:46.729Z,8.80
2018-09-06T13:17:16.296Z,7.22
2018-09-06T13:19:45.910Z,7.45
2018-09-06T13:22:16.018Z,6.97
2018-09-06T13:24:45.780Z,8.80
2018-09-06T13:27:15.914Z,8.40
2018-09-06T13:29:45.610Z,6.95
2018-09-06T13:32:15.231Z,8.50
2018-09-06T13:34:44.950Z,6.95
2018-09-06T13:37:14.599Z,9.70
2018-09-06T13:39:44.424Z,9.58
2018-09-06T13:42:14.059Z,9.50
2018-09-06T13:44:43.737Z,8.40
2018-09-06T13:47:13.449Z,8.20
2018-09-06T13:49:43.084Z,8.38
2018-09-06T13:52:12.691Z,8.63
2018-09-06T13:54:42.317Z,8.83
2018-09-06T13:57:12.016Z,10.43
2018-09-06T13:59:41.812Z,8.53
2018-09-06T14:02:11.519Z,8.05
2018-09-06T14:04:41.176Z,10.13
2018-09-06T14:07:10.857Z,10.50
2018-09-06T14:09:40.618Z,10.90
2018-09-06T14:12:10.279Z,11.78
2018-09-06T14:14:39.970Z,9.60
2018-09-06T14:17:09.618Z,9.60
2018-09-06T14:19:39.245Z,9.73
2018-09-06T14:22:08.825Z,8.38
2018-09-06T14:24:38.623Z,8.38
2018-09-06T14:27:08.292Z,9.05
2018-09-06T14:29:37.989Z,9.70
2018-09-06T14:32:07.700Z,9.13
2018-09-06T14:34:37.774Z,9.88
2018-09-06T14:37:07.731Z,10.03
2018-09-06T14:39:37.390Z,10.20
2018-09-06T14:42:07.082Z,9.43
2018-09-06T14:44:36.688Z,9.83
2018-09-06T14:47:06.470Z,9.05
2018-09-06T14:49:36.258Z,8.68
2018-09-06T14:52:05.912Z,7.70
2018-09-06T14:54:36.553Z,8.90
2018-09-06T14:57:06.701Z,7.85
2018-09-06T14:59:37.091Z,8.50
2018-09-06T15:02:07.130Z,8.28
2018-09-06T15:04:36.825Z,6.90
2018-09-06T15:07:06.571Z,7.42
2018-09-06T15:09:36.497Z,6.90
2018-09-06T15:12:06.281Z,6.72
2018-09-06T15:14:36.847Z,7.12
2018-09-06T15:17:06.612Z,8.70
2018-09-06T15:19:36.219Z,7.78
2018-09-06T15:22:06.110Z,6.53
2018-09-06T15:24:35.953Z,7.30
2018-09-06T15:27:05.922Z,7.60
2018-09-06T15:29:35.890Z,6.80
2018-09-06T15:32:06.011Z,7.92
2018-09-06T15:34:36.014Z,8.33
2018-09-06T15:37:06.434Z,7.37
2018-09-06T15:39:36.259Z,8.05
2018-09-06T15:42:06.241Z,7.72
2018-09-06T15:44:35.970Z,7.35
2018-09-06T15:47:05.804Z,7.58
2018-09-06T15:49:35.629Z,7.92
2018-09-06T15:52:05.947Z,7.30
2018-09-06T15:54:35.880Z,7.15
2018-09-06T15:57:06.307Z,7.28
2018-09-06T15:59:36.327Z,6.80
2018-09-06T16:02:06.473Z,5.90
2018-09-06T16:04:36.695Z,6.00
2018-09-06T16:07:07.116Z,6.10
2018-09-06T16:09:37.600Z,5.45
2018-09-06T16:12:07.908Z,6.60
2018-09-06T16:14:38.257Z,5.60
2018-09-06T16:17:08.470Z,5.75
2018-09-06T16:19:38.751Z,5.50
2018-09-06T16:22:09.116Z,5.55
2018-09-06T16:24:39.422Z,5.45
2018-09-06T16:27:09.859Z,5.10
2018-09-06T16:29:40.456Z,5.50
2018-09-06T16:32:11.031Z,5.33
2018-09-06T16:34:41.595Z,5.35
2018-09-06T16:37:12.108Z,5.33
2018-09-06T16:39:42.486Z,4.90
2018-09-06T16:42:12.946Z,4.58
2018-09-06T16:44:43.565Z,4.67
2018-09-06T16:47:13.956Z,5.12
2018-09-06T16:49:44.373Z,5.95
2018-09-06T16:52:16.704Z,8.05
2018-09-06T16:54:47.211Z,7.37
2018-09-06T16:57:18.595Z,7.77
2018-09-06T16:59:48.961Z,6.63
2018-09-06T17:02:19.993Z,6.73
2018-09-06T17:04:51.606Z,6.30
2018-09-06T17:07:22.627Z,6.47
2018-09-06T17:09:53.224Z,6.40
2018-09-06T17:12:24.012Z,6.33
2018-09-06T17:14:54.471Z,6.07
2018-09-06T17:17:25.510Z,6.07
2018-09-06T17:19:56.479Z,6.10
2018-09-06T17:22:26.866Z,6.50
2018-09-06T17:24:57.398Z,7.43
2018-09-06T17:27:28.238Z,6.63
2018-09-06T17:29:59.203Z,6.07
2018-09-06T17:32:29.661Z,5.50
2018-09-06T17:35:00.073Z,5.43
2018-09-06T17:37:30.671Z,5.50
2018-09-06T17:40:01.093Z,5.73
2018-09-06T17:42:32.878Z,6.70
2018-09-06T17:45:03.329Z,6.70
2018-09-06T17:47:33.881Z,7.07
2018-09-06T17:50:04.346Z,7.60
2018-09-06T17:52:34.804Z,7.17
2018-09-06T17:55:05.402Z,7.43
2018-09-06T17:57:36.386Z,7.10
2018-09-06T18:00:07.211Z,7.10
2018-09-06T18:02:37.682Z,7.37
2018-09-06T18:05:10.255Z,7.60
2018-09-06T18:07:42.424Z,7.07
2018-09-06T18:10:12.897Z,7.13
2018-09-06T18:12:43.500Z,8.00
2018-09-06T18:15:14.618Z,7.60
2018-09-06T18:17:48.752Z,6.90
2018-09-06T18:20:21.230Z,8.03
2018-09-06T18:22:52.288Z,9.73
2018-09-06T18:25:25.222Z,10.30
2018-09-06T18:27:55.770Z,10.80
2018-09-06T18:30:26.476Z,11.43
2018-09-06T18:32:57.323Z,11.30
2018-09-06T18:35:30.976Z,10.60
2018-09-06T18:38:01.792Z,11.63
2018-09-06T18:40:32.612Z,10.17
2018-09-06T18:43:03.550Z,9.10
2018-09-06T18:45:34.708Z,9.87
2018-09-06T18:48:05.913Z,10.43
2018-09-06T18:50:36.369Z,10.97
2018-09-06T18:53:06.894Z,11.10
2018-09-06T18:55:37.382Z,9.67
2018-09-06T18:58:08.043Z,7.67
2018-09-06T19:00:38.466Z,7.13
2018-09-06T19:03:10.282Z,6.27
2018-09-06T19:05:41.797Z,5.50
2018-09-06T19:08:12.443Z,4.77
2018-09-06T19:10:43.040Z,6.00
2018-09-06T19:13:13.535Z,6.90
2018-09-06T19:15:43.961Z,6.63
2018-09-06T19:18:14.517Z,6.83
2018-09-06T19:20:44.940Z,7.67
2018-09-06T19:23:15.547Z,7.40
2018-09-06T19:25:46.008Z,7.33
2018-09-06T19:28:16.485Z,6.77
2018-09-06T19:30:46.931Z,5.87
2018-09-06T19:33:17.462Z,5.70
2018-09-06T19:35:47.931Z,5.30
2018-09-06T19:38:18.403Z,5.00
2018-09-06T19:40:48.975Z,5.50
2018-09-06T19:43:19.544Z,5.83
2018-09-06T19:45:51.012Z,5.43
2018-09-06T19:48:21.462Z,5.10
2018-09-06T19:50:52.397Z,4.97
2018-09-06T19:53:22.898Z,4.67
2018-09-06T19:55:53.489Z,4.53
2018-09-06T19:58:24.016Z,4.47
2018-09-06T20:00:54.505Z,4.77
2018-09-06T20:03:24.997Z,5.10
2018-09-06T20:05:55.396Z,5.40
2018-09-06T20:08:25.951Z,5.23
2018-09-06T20:10:56.362Z,4.87
2018-09-06T20:13:27.606Z,5.17
2018-09-06T20:15:58.071Z,4.87
2018-09-06T20:18:29.582Z,4.87
2018-09-06T20:21:00.029Z,4.90
2018-09-06T20:23:31.091Z,5.53
2018-09-06T20:26:01.798Z,5.13
2018-09-06T20:28:32.288Z,5.87
2018-09-06T20:31:02.975Z,5.33
2018-09-06T20:33:33.512Z,5.47
2018-09-06T20:36:03.993Z,5.10
2018-09-06T20:38:34.465Z,4.60
2018-09-06T20:41:04.912Z,5.40
2018-09-06T20:43:35.507Z,4.63
2018-09-06T20:46:05.924Z,4.40
2018-09-06T20:48:36.323Z,5.00
2018-09-06T20:51:06.756Z,4.70
2018-09-06T20:53:37.146Z,4.97
2018-09-06T20:56:07.589Z,4.77
2018-09-06T20:58:38.078Z,4.90
2018-09-06T21:01:08.427Z,4.73
2018-09-06T21:03:38.791Z,4.40
2018-09-06T21:06:09.049Z,4.60
2018-09-06T21:08:39.224Z,4.20
2018-09-06T21:11:09.165Z,4.23
2018-09-06T21:13:39.549Z,4.13
2018-09-06T21:16:09.882Z,4.17
2018-09-06T21:18:40.178Z,4.27
2018-09-06T21:21:10.472Z,4.60
2018-09-06T21:23:40.121Z,4.40
2018-09-06T21:26:09.779Z,3.93
2018-09-06T21:28:39.445Z,3.70
2018-09-06T21:31:09.183Z,4.00
2018-09-06T21:33:38.838Z,4.20
2018-09-06T21:36:08.491Z,4.23
2018-09-06T21:38:38.151Z,4.13
2018-09-06T21:41:07.748Z,4.23
2018-09-06T21:43:37.545Z,3.63
2018-09-06T21:46:07.296Z,3.83
2018-09-06T21:48:36.908Z,3.57
2018-09-06T21:51:06.755Z,3.63
2018-09-06T21:53:36.379Z,3.70
2018-09-06T21:56:06.120Z,3.10
2018-09-06T21:58:35.739Z,3.00
2018-09-06T22:01:05.403Z,3.43
2018-09-06T22:03:40.014Z,3.47
2018-09-06T22:06:09.616Z,3.00
2018-09-06T22:08:39.330Z,2.90
2018-09-06T22:11:09.085Z,3.27
2018-09-06T22:13:38.670Z,2.83
2018-09-06T22:16:08.270Z,3.20
2018-09-06T22:18:37.906Z,3.47
2018-09-06T22:21:07.739Z,2.97
2018-09-06T22:23:37.479Z,3.30
2018-09-06T22:26:07.148Z,3.00
2018-09-06T22:28:36.712Z,3.43
2018-09-06T22:31:06.923Z,3.27
2018-09-06T22:33:36.859Z,2.77
2018-09-06T22:36:07.076Z,2.80
2018-09-06T22:38:36.670Z,3.27
2018-09-06T22:41:06.251Z,2.70
2018-09-06T22:43:35.899Z,2.87
2018-09-06T22:46:05.514Z,3.10
2018-09-06T22:48:35.272Z,2.80
2018-09-06T22:51:05.041Z,3.13
2018-09-06T22:53:35.273Z,3.00
2018-09-06T22:56:04.983Z,3.00
2018-09-06T22:58:34.684Z,2.70
2018-09-06T23:01:04.302Z,3.20
2018-09-06T23:03:39.681Z,3.10
2018-09-06T23:06:09.371Z,4.17
2018-09-06T23:08:39.024Z,3.70
2018-09-06T23:11:08.644Z,3.23
2018-09-06T23:13:38.394Z,3.47
2018-09-06T23:16:08.198Z,3.50
2018-09-06T23:18:37.856Z,3.60
2018-09-06T23:21:07.480Z,3.27
2018-09-06T23:23:37.071Z,3.00
2018-09-06T23:26:06.726Z,3.40
2018-09-06T23:28:36.449Z,3.10
2018-09-06T23:31:06.274Z,3.43
2018-09-06T23:33:35.881Z,3.60
2018-09-06T23:36:05.500Z,3.87
2018-09-06T23:38:35.130Z,3.43
2018-09-06T23:41:04.828Z,3.80
2018-09-06T23:43:34.642Z,3.50
2018-09-06T23:46:04.236Z,3.40
2018-09-06T23:48:33.851Z,3.10
2018-09-06T23:51:03.482Z,3.13
2018-09-06T23:53:33.086Z,3.40
2018-09-06T23:56:02.717Z,3.37
2018-09-06T23:58:32.344Z,3.37
